createdAt,value
2023-01-04T00:01:29.132Z,5.03
2023-01-04T00:03:59.696Z,4.53
2023-01-04T00:06:28.896Z,4.75
2023-01-04T00:08:57.475Z,4.82
2023-01-04T00:11:26.730Z,5.43
2023-01-04T00:13:58.275Z,4.97
2023-01-04T00:16:29.859Z,6.57
2023-01-04T00:19:00.324Z,7.47
2023-01-04T00:21:31.662Z,7.57
2023-01-04T00:24:03.819Z,6.10
2023-01-04T00:26:33.487Z,5.88
2023-01-04T00:29:02.894Z,5.90
2023-01-04T00:31:33.821Z,4.95
2023-01-04T00:34:04.071Z,5.15
2023-01-04T00:36:33.400Z,5.13
2023-01-04T00:39:10.401Z,5.15
2023-01-04T00:44:29.105Z,4.93
2023-01-04T00:46:59.725Z,5.90
2023-01-04T00:49:29.103Z,5.20
2023-01-04T00:51:58.124Z,5.47
2023-01-04T00:54:26.952Z,5.60
2023-01-04T00:56:58.178Z,6.00
2023-01-04T00:59:26.751Z,5.63
2023-01-04T01:01:55.674Z,5.95
2023-01-04T01:04:26.575Z,6.85
2023-01-04T01:06:55.745Z,6.82
2023-01-04T01:09:25.138Z,6.13
2023-01-04T01:11:54.010Z,5.55
2023-01-04T01:14:23.997Z,6.38
2023-01-04T01:16:55.825Z,5.45
2023-01-04T01:19:26.619Z,6.43
2023-01-04T01:21:57.402Z,6.30
2023-01-04T01:24:26.258Z,6.15
2023-01-04T01:26:55.827Z,7.28
2023-01-04T01:29:24.675Z,7.07
2023-01-04T01:31:53.753Z,6.55
2023-01-04T01:34:22.722Z,6.60
2023-01-04T01:36:53.112Z,6.88
2023-01-04T01:39:24.595Z,6.68
2023-01-04T01:41:53.583Z,6.65
2023-01-04T01:44:40.851Z,6.10
2023-01-04T01:47:13.399Z,6.63
2023-01-04T01:49:42.564Z,6.03
2023-01-04T01:52:14.389Z,6.63
2023-01-04T01:54:44.693Z,6.82
2023-01-04T01:57:16.186Z,7.00
2023-01-04T01:59:46.419Z,6.72
2023-01-04T02:02:15.384Z,6.85
2023-01-04T02:04:46.840Z,6.25
2023-01-04T02:07:19.671Z,6.97
2023-01-04T02:09:48.755Z,7.00
2023-01-04T02:12:17.624Z,7.05
2023-01-04T02:14:48.013Z,6.53
2023-01-04T02:17:20.043Z,6.78
2023-01-04T02:20:04.228Z,7.00
2023-01-04T02:22:50.760Z,6.70
2023-01-04T02:28:19.734Z,7.18
2023-01-04T02:31:06.180Z,7.25
2023-01-04T02:33:41.245Z,7.25
2023-01-04T02:36:14.462Z,7.47
2023-01-04T02:39:00.485Z,7.07
2023-01-04T02:41:31.642Z,7.82
2023-01-04T02:44:20.406Z,6.70
2023-01-04T02:46:53.182Z,7.03
2023-01-04T02:49:42.609Z,8.13
2023-01-04T02:52:16.357Z,7.72
2023-01-04T02:57:31.358Z,7.20
2023-01-04T03:00:16.403Z,6.97
2023-01-04T03:03:17.092Z,7.35
2023-01-04T03:06:10.228Z,5.45
2023-01-04T03:08:41.984Z,5.60
2023-01-04T03:11:36.552Z,6.30
2023-01-04T03:14:31.505Z,5.75
2023-01-04T03:17:01.182Z,6.57
2023-01-04T03:19:43.864Z,6.53
2023-01-04T03:22:46.183Z,6.57
2023-01-04T03:25:41.358Z,6.43
2023-01-04T03:28:29.362Z,6.38
2023-01-04T03:31:21.299Z,6.53
2023-01-04T03:34:08.162Z,7.07
2023-01-04T03:36:45.592Z,6.50
2023-01-04T03:39:40.257Z,6.97
2023-01-04T03:42:32.686Z,6.40
2023-01-04T03:45:32.957Z,6.15
2023-01-04T03:51:28.861Z,6.40
2023-01-04T03:54:07.238Z,6.30
2023-01-04T03:56:44.991Z,6.60
2023-01-04T03:59:17.292Z,6.22
2023-01-04T04:01:47.622Z,5.90
2023-01-04T04:04:34.137Z,6.25
2023-01-04T04:07:21.224Z,5.47
2023-01-04T04:09:51.559Z,5.50
2023-01-04T04:12:24.182Z,5.80
2023-01-04T04:14:58.202Z,6.25
2023-01-04T04:17:33.031Z,5.80
2023-01-04T04:20:04.201Z,5.80
2023-01-04T04:22:38.398Z,5.90
2023-01-04T04:25:09.705Z,5.75
2023-01-04T04:27:42.677Z,5.30
2023-01-04T04:30:14.405Z,5.22
2023-01-04T04:32:43.085Z,5.18
2023-01-04T04:35:12.003Z,5.38
2023-01-04T04:37:43.145Z,5.43
2023-01-04T04:40:33.526Z,5.18
2023-01-04T04:43:04.896Z,5.32
2023-01-04T04:45:35.951Z,4.97
2023-01-04T04:48:09.165Z,4.88
2023-01-04T04:50:37.872Z,5.55
2023-01-04T04:53:08.289Z,4.63
2023-01-04T04:55:41.377Z,5.15
2023-01-04T04:58:16.207Z,5.45
2023-01-04T05:00:52.003Z,5.10
2023-01-04T05:03:22.363Z,5.13
2023-01-04T05:06:00.851Z,4.43
2023-01-04T05:08:31.741Z,4.63
2023-01-04T05:11:17.881Z,4.78
2023-01-04T05:13:59.131Z,5.03
2023-01-04T05:16:46.073Z,5.05
2023-01-04T05:19:19.936Z,4.55
2023-01-04T05:24:53.625Z,4.95
2023-01-04T05:27:48.262Z,5.40
2023-01-04T05:30:47.881Z,4.57
2023-01-04T05:33:35.885Z,4.25
2023-01-04T05:36:14.895Z,4.15
2023-01-04T05:38:58.538Z,4.43
2023-01-04T05:41:46.240Z,4.10
2023-01-04T05:44:36.817Z,4.18
2023-01-04T05:47:30.285Z,4.38
2023-01-04T05:50:07.228Z,4.07
2023-01-04T05:52:41.943Z,4.15
2023-01-04T05:55:21.049Z,4.43
2023-01-04T05:57:52.256Z,4.43
2023-01-04T06:00:26.937Z,4.28
2023-01-04T06:03:03.031Z,4.43
2023-01-04T06:05:36.506Z,4.18
2023-01-04T06:08:20.275Z,3.83
2023-01-04T06:11:00.901Z,4.05
2023-01-04T06:13:31.960Z,3.50
2023-01-04T06:16:08.835Z,4.35
2023-01-04T06:18:39.976Z,3.90
2023-01-04T06:21:11.659Z,4.10
2023-01-04T06:23:44.520Z,4.28
2023-01-04T06:26:13.542Z,4.03
2023-01-04T06:28:48.109Z,3.83
2023-01-04T06:31:30.690Z,4.30
2023-01-04T06:34:04.109Z,3.83
2023-01-04T06:36:36.876Z,3.65
2023-01-04T06:39:25.870Z,3.58
2023-01-04T06:42:05.702Z,3.90
2023-01-04T06:44:35.100Z,4.22
2023-01-04T06:47:34.901Z,4.88
2023-01-04T06:50:39.277Z,4.03
2023-01-04T06:53:57.202Z,3.78
2023-01-04T06:56:49.682Z,3.17
2023-01-04T06:59:44.841Z,3.30
2023-01-04T07:03:13.961Z,3.10
2023-01-04T07:10:50.281Z,3.22
2023-01-04T07:13:25.659Z,3.00
2023-01-04T07:16:10.982Z,3.20
2023-01-04T07:18:50.921Z,3.25
2023-01-04T07:21:31.843Z,2.60
2023-01-04T07:24:11.938Z,3.35
2023-01-04T07:26:40.933Z,3.10
2023-01-04T07:29:20.544Z,3.30
2023-01-04T07:31:49.913Z,3.17
2023-01-04T07:34:21.165Z,2.70
2023-01-04T07:36:53.057Z,2.90
2023-01-04T07:39:33.316Z,2.97
2023-01-04T07:42:05.071Z,2.78
2023-01-04T07:44:33.672Z,3.13
2023-01-04T07:47:16.650Z,3.08
2023-01-04T07:49:49.334Z,3.58
2023-01-04T07:52:21.722Z,2.90
2023-01-04T07:54:50.806Z,3.45
2023-01-04T07:57:26.449Z,3.70
2023-01-04T07:59:55.495Z,3.40
2023-01-04T08:02:32.467Z,3.80
2023-01-04T08:05:07.034Z,2.97
2023-01-04T08:07:40.203Z,2.67
2023-01-04T08:10:09.584Z,2.35
2023-01-04T08:12:40.062Z,2.63
2023-01-04T08:15:09.145Z,1.98
2023-01-04T08:17:37.956Z,1.70
2023-01-04T08:20:09.470Z,1.83
2023-01-04T08:22:40.391Z,1.48
2023-01-04T08:25:14.232Z,1.77
2023-01-04T08:30:13.892Z,1.73
2023-01-04T08:32:42.600Z,1.50
2023-01-04T08:35:12.608Z,1.90
2023-01-04T08:37:41.098Z,1.42
2023-01-04T08:40:10.504Z,1.15
2023-01-04T08:42:38.985Z,1.30
2023-01-04T08:45:08.340Z,1.40
2023-01-04T08:47:36.921Z,1.40
2023-01-04T08:50:10.353Z,1.30
2023-01-04T08:52:41.189Z,1.17
2023-01-04T08:55:13.349Z,1.30
2023-01-04T08:57:43.149Z,1.50
2023-01-04T09:00:12.643Z,1.08
2023-01-04T09:02:41.216Z,1.40
2023-01-04T09:05:10.376Z,1.20
2023-01-04T09:07:52.334Z,1.33
2023-01-04T09:10:20.876Z,1.00
2023-01-04T09:12:49.542Z,0.90
2023-01-04T09:15:18.680Z,0.90
2023-01-04T09:18:20.450Z,1.00
2023-01-04T09:20:36.372Z,1.00
2023-01-04T09:23:06.762Z,1.02
2023-01-04T09:25:35.283Z,0.70
2023-01-04T09:28:03.821Z,0.93
2023-01-04T09:30:32.813Z,1.10
2023-01-04T09:33:04.206Z,0.93
2023-01-04T09:35:33.406Z,1.00
2023-01-04T09:38:07.617Z,0.88
2023-01-04T09:40:49.494Z,0.65
2023-01-04T09:43:28.605Z,0.90
2023-01-04T09:46:01.821Z,1.00
2023-01-04T09:48:34.184Z,1.00
2023-01-04T09:51:04.552Z,1.08
2023-01-04T09:53:34.710Z,0.93
2023-01-04T09:56:10.321Z,0.80
2023-01-04T09:58:41.286Z,1.10
2023-01-04T10:01:15.288Z,1.15
2023-01-04T10:03:48.104Z,0.90
2023-01-04T10:06:16.732Z,1.20
2023-01-04T10:08:51.289Z,0.73
2023-01-04T10:11:27.484Z,0.80
2023-01-04T10:14:04.809Z,0.80
2023-01-04T10:17:13.023Z,1.20
2023-01-04T10:22:52.094Z,1.02
2023-01-04T10:25:47.417Z,0.75
2023-01-04T10:28:26.906Z,1.02
2023-01-04T10:31:39.361Z,0.85
2023-01-04T10:34:03.115Z,0.80
2023-01-04T10:36:34.125Z,0.80
2023-01-04T10:39:34.878Z,0.77
2023-01-04T10:42:10.503Z,0.80
2023-01-04T10:44:47.745Z,0.98
2023-01-04T10:47:20.321Z,1.02
2023-01-04T10:49:50.777Z,0.70
2023-01-04T10:52:20.773Z,0.90
2023-01-04T10:54:52.751Z,1.00
2023-01-04T10:57:24.804Z,1.30
2023-01-04T10:59:57.207Z,1.08
2023-01-04T11:02:29.141Z,1.77
2023-01-04T11:05:00.727Z,1.40
2023-01-04T11:07:34.077Z,1.65
2023-01-04T11:10:05.873Z,1.20
2023-01-04T11:12:34.646Z,1.15
2023-01-04T11:15:08.666Z,0.80
2023-01-04T11:17:38.967Z,0.90
2023-01-04T11:20:08.440Z,1.00
2023-01-04T11:22:40.587Z,0.82
2023-01-04T11:28:11.151Z,0.95
2023-01-04T11:30:50.110Z,0.90
2023-01-04T11:33:19.899Z,1.30
2023-01-04T11:35:49.862Z,0.90
2023-01-04T11:38:19.609Z,0.88
2023-01-04T11:41:00.912Z,1.10
2023-01-04T11:43:30.537Z,0.80
2023-01-04T11:46:25.544Z,1.17
2023-01-04T11:48:54.465Z,0.93
2023-01-04T11:51:36.778Z,0.98
2023-01-04T11:54:06.412Z,0.90
2023-01-04T11:56:35.883Z,0.93
2023-01-04T11:59:25.693Z,1.00
2023-01-04T12:02:28.597Z,1.10
2023-01-04T12:05:02.876Z,0.77
2023-01-04T12:07:33.144Z,0.82
2023-01-04T12:10:02.615Z,0.90
2023-01-04T12:12:32.363Z,0.70
2023-01-04T12:15:04.261Z,1.20
2023-01-04T12:17:42.937Z,1.05
2023-01-04T12:20:19.153Z,1.13
2023-01-04T12:22:48.460Z,0.88
2023-01-04T12:25:30.647Z,1.25
2023-01-04T12:27:59.309Z,0.90
2023-01-04T12:30:38.620Z,1.15
2023-01-04T12:33:30.785Z,1.25
2023-01-04T12:36:05.129Z,0.80
2023-01-04T12:38:52.733Z,0.90
2023-01-04T12:41:26.791Z,0.70
2023-01-04T12:43:56.516Z,1.13
2023-01-04T12:47:00.501Z,1.30
2023-01-04T12:49:53.270Z,1.13
2023-01-04T12:53:02.265Z,1.08
2023-01-04T12:55:59.663Z,1.50
2023-01-04T12:59:25.176Z,0.90
2023-01-04T13:02:04.214Z,1.38
2023-01-04T13:04:43.494Z,1.25
2023-01-04T13:07:16.351Z,1.25
2023-01-04T13:09:51.191Z,1.30
2023-01-04T13:12:40.332Z,1.30
2023-01-04T13:15:17.500Z,1.40
2023-01-04T13:17:51.214Z,1.45
2023-01-04T13:20:20.943Z,1.30
2023-01-04T13:22:52.504Z,1.50
2023-01-04T13:25:23.878Z,1.55
2023-01-04T13:28:00.128Z,1.90
2023-01-04T13:30:32.925Z,1.63
2023-01-04T13:33:27.210Z,1.50
2023-01-04T13:36:02.655Z,1.70
2023-01-04T13:38:42.341Z,1.40
2023-01-04T13:41:21.149Z,1.55
2023-01-04T13:43:58.535Z,1.60
2023-01-04T13:46:28.190Z,1.42
2023-01-04T13:49:00.468Z,1.73
2023-01-04T13:51:37.752Z,1.38
2023-01-04T13:54:08.666Z,1.70
2023-01-04T13:57:12.887Z,1.25
2023-01-04T13:59:44.077Z,1.45
2023-01-04T14:02:20.225Z,1.60
2023-01-04T14:05:02.427Z,1.52
2023-01-04T14:07:41.020Z,1.50
2023-01-04T14:10:18.591Z,1.80
2023-01-04T14:12:53.223Z,1.58
2023-01-04T14:15:37.244Z,1.48
2023-01-04T14:18:23.025Z,1.50
2023-01-04T14:20:53.461Z,1.45
2023-01-04T14:23:28.859Z,1.65
2023-01-04T14:26:08.098Z,1.70
2023-01-04T14:28:50.017Z,1.60
2023-01-04T14:31:27.174Z,1.27
2023-01-04T14:33:56.417Z,1.52
2023-01-04T14:36:26.963Z,1.42
2023-01-04T14:39:10.798Z,1.50
2023-01-04T14:41:42.547Z,1.58
2023-01-04T14:44:14.544Z,1.55
2023-01-04T14:46:51.714Z,1.42
2023-01-04T14:49:34.662Z,1.45
2023-01-04T14:52:06.667Z,1.60
2023-01-04T14:54:38.340Z,1.63
2023-01-04T14:57:07.048Z,1.52
2023-01-04T14:59:39.803Z,1.63
2023-01-04T15:02:26.232Z,1.65
2023-01-04T15:04:58.314Z,1.33
2023-01-04T15:07:35.927Z,1.30
2023-01-04T15:10:05.605Z,1.55
2023-01-04T15:12:39.713Z,1.30
2023-01-04T15:15:11.892Z,1.80
2023-01-04T15:17:46.743Z,1.42
2023-01-04T15:20:27.804Z,1.40
2023-01-04T15:22:58.822Z,1.70
2023-01-04T15:25:36.998Z,1.83
2023-01-04T15:28:14.838Z,1.58
2023-01-04T15:30:55.852Z,1.50
2023-01-04T15:33:24.769Z,1.55
2023-01-04T15:36:20.021Z,1.55
2023-01-04T15:39:34.489Z,1.65
2023-01-04T15:42:26.182Z,1.70
2023-01-04T15:44:55.423Z,2.17
2023-01-04T15:47:33.456Z,1.30
2023-01-04T15:50:04.574Z,1.50
2023-01-04T15:52:38.206Z,2.30
2023-01-04T15:55:10.665Z,2.95
2023-01-04T15:57:43.973Z,2.45
2023-01-04T16:02:45.309Z,4.22
2023-01-04T16:05:16.214Z,2.40
2023-01-04T16:07:48.604Z,2.33
2023-01-04T16:10:27.185Z,2.58
2023-01-04T16:13:00.299Z,1.67
2023-01-04T16:15:33.795Z,1.70
2023-01-04T16:18:07.189Z,1.60
2023-01-04T16:20:38.625Z,1.83
2023-01-04T16:23:07.189Z,1.75
2023-01-04T16:25:41.395Z,1.67
2023-01-04T16:28:16.166Z,1.70
2023-01-04T16:30:45.045Z,1.55
2023-01-04T16:33:17.767Z,2.28
2023-01-04T16:35:46.588Z,1.92
2023-01-04T16:38:20.805Z,1.67
2023-01-04T16:40:58.302Z,1.80
2023-01-04T16:43:26.862Z,2.40
2023-01-04T16:46:13.146Z,3.50
2023-01-04T16:48:46.850Z,1.75
2023-01-04T16:51:15.612Z,2.03
2023-01-04T16:53:44.825Z,1.90
2023-01-04T16:56:14.376Z,3.13
2023-01-04T16:58:45.383Z,1.73
2023-01-04T17:01:15.107Z,1.50
2023-01-04T17:03:44.488Z,1.38
2023-01-04T17:06:15.972Z,1.50
2023-01-04T17:08:44.981Z,1.98
2023-01-04T17:14:05.848Z,2.20
2023-01-04T17:16:35.358Z,1.80
2023-01-04T17:19:07.090Z,1.40
2023-01-04T17:21:37.068Z,1.40
2023-01-04T17:24:07.723Z,1.38
2023-01-04T17:26:41.912Z,1.50
2023-01-04T17:29:11.559Z,1.40
2023-01-04T17:31:47.944Z,1.70
2023-01-04T17:34:22.930Z,1.30
2023-01-04T17:36:54.946Z,1.30
2023-01-04T17:39:29.304Z,2.00
2023-01-04T17:41:58.301Z,1.40
2023-01-04T17:44:34.528Z,1.60
2023-01-04T17:47:10.964Z,1.30
2023-01-04T17:49:43.103Z,1.23
2023-01-04T17:52:20.088Z,1.20
2023-01-04T17:54:50.957Z,1.17
2023-01-04T17:57:19.364Z,1.33
2023-01-04T17:59:47.893Z,1.30
2023-01-04T18:02:16.716Z,1.50
2023-01-04T18:04:45.863Z,1.73
2023-01-04T18:07:16.676Z,1.25
2023-01-04T18:09:46.106Z,1.20
2023-01-04T18:12:14.903Z,1.00
2023-01-04T18:14:43.370Z,1.20
2023-01-04T18:17:12.035Z,1.50
2023-01-04T18:19:44.554Z,1.15
2023-01-04T18:22:27.391Z,1.20
2023-01-04T18:25:04.992Z,1.10
2023-01-04T18:27:34.297Z,1.38
2023-01-04T18:33:32.305Z,1.33
2023-01-04T18:36:16.441Z,1.23
2023-01-04T18:39:09.530Z,1.20
2023-01-04T18:42:01.589Z,1.40
2023-01-04T18:44:47.418Z,1.40
2023-01-04T18:47:39.090Z,1.40
2023-01-04T18:50:28.070Z,1.35
2023-01-04T18:53:27.605Z,1.48
2023-01-04T18:56:48.120Z,1.50
2023-01-04T19:02:32.001Z,1.40
2023-01-04T19:08:19.634Z,1.10
2023-01-04T19:10:50.505Z,1.23
2023-01-04T19:13:55.717Z,1.40
2023-01-04T19:23:51.420Z,1.55
2023-01-04T19:29:57.104Z,1.50
2023-01-04T19:57:14.187Z,1.52
2023-01-04T20:25:25.400Z,1.08
2023-01-04T20:28:42.068Z,1.35
2023-01-04T20:58:41.055Z,1.00
2023-01-04T21:08:11.631Z,1.13
2023-01-04T21:11:10.992Z,1.17
2023-01-04T21:32:17.421Z,1.48
2023-01-04T21:38:39.871Z,1.45
2023-01-04T22:11:44.523Z,0.88
2023-01-04T22:18:09.368Z,0.90
2023-01-04T22:21:36.319Z,0.85
2023-01-04T22:28:31.685Z,0.90
2023-01-04T22:51:42.967Z,1.08
2023-01-04T22:54:42.915Z,1.00
2023-01-04T22:57:20.899Z,1.25
2023-01-04T23:00:06.386Z,1.30
2023-01-04T23:02:45.069Z,1.33
2023-01-04T23:05:30.507Z,1.35
2023-01-04T23:08:00.122Z,1.40
2023-01-04T23:10:34.920Z,1.23
2023-01-04T23:13:53.886Z,1.42
2023-01-04T23:16:37.874Z,1.58
2023-01-04T23:19:07.985Z,1.98
2023-01-04T23:21:39.377Z,1.73
2023-01-04T23:24:27.556Z,1.50
2023-01-04T23:27:08.208Z,1.40
2023-01-04T23:29:39.289Z,1.60
2023-01-04T23:32:27.993Z,1.65
2023-01-04T23:35:10.744Z,1.30
2023-01-04T23:37:46.539Z,1.77
2023-01-04T23:40:25.847Z,1.50
2023-01-04T23:42:57.685Z,1.25
2023-01-04T23:45:56.620Z,1.30
2023-01-04T23:48:48.176Z,1.40
2023-01-04T23:51:26.634Z,1.30
2023-01-04T23:53:57.473Z,1.00
2023-01-04T23:56:38.561Z,1.08
2023-01-04T23:59:10.616Z,0.90
